Terminal Aerodrome Forecast
Issued by NWS

Current Version | Previous Version | Text Only | Print | Product List | Glossary On
Versions: 1 2 3 4 5 6 7 8 9 10 11 12 13 14 15 16 17 18 19 20 21
068
FTUS41 KBGM 241129
TAFRME
TAF
KRME 241129Z 2412/2512 32008KT 1SM -SN BR OVC005
     FM241500 32010KT 2SM -SN BR OVC008
     FM241800 32008KT 4SM -SN BR OVC008
     FM250000 29007KT P6SM -SN OVC008
     FM250600 29008KT P6SM OVC015=

USA.gov is the U.S. government's official web portal to all federal, state and local government web resources and services.